sensor_id;sensor_type;location;lat;lon;timestamp;P1;durP1;ratioP1;P2;durP2;ratioP2
43628;SDS011;56545;48.224;11.678;2023-02-28T00:00:17;5.88;;;2.38;;
43628;SDS011;56545;48.224;11.678;2023-02-28T00:02:44;6.15;;;2.50;;
43628;SDS011;56545;48.224;11.678;2023-02-28T00:05:11;6.25;;;2.47;;
43628;SDS011;56545;48.224;11.678;2023-02-28T00:07:40;6.85;;;2.42;;
43628;SDS011;56545;48.224;11.678;2023-02-28T00:10:08;7.13;;;2.78;;
43628;SDS011;56545;48.224;11.678;2023-02-28T00:12:36;6.60;;;2.60;;
43628;SDS011;56545;48.224;11.678;2023-02-28T00:15:09;7.88;;;2.60;;
43628;SDS011;56545;48.224;11.678;2023-02-28T00:17:36;6.80;;;2.70;;
43628;SDS011;56545;48.224;11.678;2023-02-28T00:20:03;6.50;;;3.05;;
43628;SDS011;56545;48.224;11.678;2023-02-28T00:22:33;6.22;;;2.63;;
43628;SDS011;56545;48.224;11.678;2023-02-28T00:24:59;6.38;;;3.10;;
43628;SDS011;56545;48.224;11.678;2023-02-28T00:27:25;5.63;;;2.72;;
43628;SDS011;56545;48.224;11.678;2023-02-28T00:29:51;6.75;;;2.58;;
43628;SDS011;56545;48.224;11.678;2023-02-28T00:32:18;6.70;;;2.80;;
43628;SDS011;56545;48.224;11.678;2023-02-28T00:34:44;6.65;;;2.50;;
43628;SDS011;56545;48.224;11.678;2023-02-28T00:37:10;6.18;;;2.63;;
43628;SDS011;56545;48.224;11.678;2023-02-28T00:39:37;6.63;;;2.72;;
43628;SDS011;56545;48.224;11.678;2023-02-28T00:42:03;6.97;;;2.65;;
43628;SDS011;56545;48.224;11.678;2023-02-28T00:44:30;6.50;;;2.70;;
43628;SDS011;56545;48.224;11.678;2023-02-28T00:46:57;7.05;;;2.92;;
43628;SDS011;56545;48.224;11.678;2023-02-28T00:49:24;6.55;;;2.90;;
43628;SDS011;56545;48.224;11.678;2023-02-28T00:51:51;6.00;;;2.72;;
43628;SDS011;56545;48.224;11.678;2023-02-28T00:54:18;6.07;;;2.88;;
43628;SDS011;56545;48.224;11.678;2023-02-28T00:56:44;6.72;;;2.90;;
43628;SDS011;56545;48.224;11.678;2023-02-28T00:59:11;7.97;;;3.08;;
43628;SDS011;56545;48.224;11.678;2023-02-28T01:01:37;7.60;;;3.00;;
43628;SDS011;56545;48.224;11.678;2023-02-28T01:04:03;8.05;;;3.03;;
43628;SDS011;56545;48.224;11.678;2023-02-28T01:06:30;7.70;;;3.30;;
43628;SDS011;56545;48.224;11.678;2023-02-28T01:08:56;5.45;;;2.60;;
43628;SDS011;56545;48.224;11.678;2023-02-28T01:11:23;6.13;;;2.92;;
43628;SDS011;56545;48.224;11.678;2023-02-28T01:13:49;7.15;;;3.00;;
43628;SDS011;56545;48.224;11.678;2023-02-28T01:16:15;6.43;;;2.92;;
43628;SDS011;56545;48.224;11.678;2023-02-28T01:18:41;6.10;;;2.67;;
43628;SDS011;56545;48.224;11.678;2023-02-28T01:21:09;6.72;;;2.83;;
43628;SDS011;56545;48.224;11.678;2023-02-28T01:23:38;6.97;;;3.20;;
43628;SDS011;56545;48.224;11.678;2023-02-28T01:26:05;5.55;;;2.80;;
43628;SDS011;56545;48.224;11.678;2023-02-28T01:28:51;6.78;;;2.70;;
43628;SDS011;56545;48.224;11.678;2023-02-28T01:31:18;6.50;;;2.83;;
43628;SDS011;56545;48.224;11.678;2023-02-28T01:33:45;7.50;;;2.97;;
43628;SDS011;56545;48.224;11.678;2023-02-28T01:36:12;6.72;;;3.17;;
43628;SDS011;56545;48.224;11.678;2023-02-28T01:38:40;7.57;;;3.17;;
43628;SDS011;56545;48.224;11.678;2023-02-28T01:41:06;7.65;;;3.47;;
43628;SDS011;56545;48.224;11.678;2023-02-28T01:46:07;6.18;;;2.88;;
43628;SDS011;56545;48.224;11.678;2023-02-28T01:48:34;6.43;;;2.88;;
43628;SDS011;56545;48.224;11.678;2023-02-28T01:51:05;8.43;;;3.20;;
43628;SDS011;56545;48.224;11.678;2023-02-28T01:53:43;6.93;;;3.15;;
43628;SDS011;56545;48.224;11.678;2023-02-28T01:56:17;6.90;;;2.95;;
43628;SDS011;56545;48.224;11.678;2023-02-28T01:58:48;7.35;;;3.40;;
43628;SDS011;56545;48.224;11.678;2023-02-28T02:01:15;6.20;;;2.97;;
43628;SDS011;56545;48.224;11.678;2023-02-28T02:03:46;7.80;;;2.90;;
43628;SDS011;56545;48.224;11.678;2023-02-28T02:06:20;6.03;;;2.72;;
43628;SDS011;56545;48.224;11.678;2023-02-28T02:08:47;6.40;;;2.97;;
43628;SDS011;56545;48.224;11.678;2023-02-28T02:11:13;7.07;;;3.00;;
43628;SDS011;56545;48.224;11.678;2023-02-28T02:19:32;7.43;;;3.33;;
43628;SDS011;56545;48.224;11.678;2023-02-28T02:32:58;8.25;;;3.65;;
43628;SDS011;56545;48.224;11.678;2023-02-28T02:35:46;7.55;;;3.30;;
43628;SDS011;56545;48.224;11.678;2023-02-28T02:38:36;7.43;;;3.35;;
43628;SDS011;56545;48.224;11.678;2023-02-28T02:43:49;5.95;;;3.03;;
43628;SDS011;56545;48.224;11.678;2023-02-28T02:46:29;9.30;;;3.70;;
43628;SDS011;56545;48.224;11.678;2023-02-28T02:49:00;8.60;;;3.47;;
43628;SDS011;56545;48.224;11.678;2023-02-28T02:51:29;8.00;;;3.53;;
43628;SDS011;56545;48.224;11.678;2023-02-28T02:53:58;7.18;;;3.78;;
43628;SDS011;56545;48.224;11.678;2023-02-28T02:56:28;7.15;;;3.42;;
43628;SDS011;56545;48.224;11.678;2023-02-28T02:58:59;7.20;;;3.53;;
43628;SDS011;56545;48.224;11.678;2023-02-28T03:01:27;8.27;;;3.53;;
43628;SDS011;56545;48.224;11.678;2023-02-28T03:03:56;7.55;;;3.60;;
43628;SDS011;56545;48.224;11.678;2023-02-28T03:06:25;7.88;;;3.70;;
43628;SDS011;56545;48.224;11.678;2023-02-28T03:08:51;9.23;;;3.85;;
43628;SDS011;56545;48.224;11.678;2023-02-28T03:11:18;7.25;;;3.72;;
43628;SDS011;56545;48.224;11.678;2023-02-28T03:17:00;7.75;;;3.92;;
43628;SDS011;56545;48.224;11.678;2023-02-28T03:25:09;8.13;;;3.90;;
43628;SDS011;56545;48.224;11.678;2023-02-28T03:27:46;7.28;;;4.18;;
43628;SDS011;56545;48.224;11.678;2023-02-28T03:33:14;8.38;;;4.35;;
43628;SDS011;56545;48.224;11.678;2023-02-28T03:35:45;8.60;;;4.50;;
43628;SDS011;56545;48.224;11.678;2023-02-28T03:38:20;7.53;;;4.05;;
43628;SDS011;56545;48.224;11.678;2023-02-28T03:41:09;8.52;;;4.13;;
43628;SDS011;56545;48.224;11.678;2023-02-28T03:43:44;8.25;;;4.50;;
43628;SDS011;56545;48.224;11.678;2023-02-28T03:46:16;8.40;;;3.95;;
43628;SDS011;56545;48.224;11.678;2023-02-28T03:48:51;9.02;;;4.40;;
43628;SDS011;56545;48.224;11.678;2023-02-28T03:51:22;8.20;;;4.22;;
43628;SDS011;56545;48.224;11.678;2023-02-28T03:53:51;8.85;;;4.50;;
43628;SDS011;56545;48.224;11.678;2023-02-28T03:58:53;8.40;;;4.50;;
43628;SDS011;56545;48.224;11.678;2023-02-28T04:01:36;8.80;;;4.70;;
43628;SDS011;56545;48.224;11.678;2023-02-28T04:04:10;7.93;;;4.40;;
43628;SDS011;56545;48.224;11.678;2023-02-28T04:06:37;9.27;;;4.82;;
43628;SDS011;56545;48.224;11.678;2023-02-28T04:09:05;7.80;;;4.40;;
43628;SDS011;56545;48.224;11.678;2023-02-28T04:14:03;7.53;;;4.32;;
43628;SDS011;56545;48.224;11.678;2023-02-28T04:16:30;7.93;;;4.50;;
43628;SDS011;56545;48.224;11.678;2023-02-28T04:18:57;9.55;;;4.70;;
43628;SDS011;56545;48.224;11.678;2023-02-28T04:21:37;7.85;;;4.35;;
43628;SDS011;56545;48.224;11.678;2023-02-28T04:24:05;9.25;;;4.95;;
43628;SDS011;56545;48.224;11.678;2023-02-28T04:26:36;9.25;;;5.30;;
43628;SDS011;56545;48.224;11.678;2023-02-28T04:29:03;9.15;;;4.90;;
43628;SDS011;56545;48.224;11.678;2023-02-28T04:31:30;9.95;;;5.20;;
43628;SDS011;56545;48.224;11.678;2023-02-28T04:33:56;9.88;;;5.63;;
43628;SDS011;56545;48.224;11.678;2023-02-28T04:36:22;9.80;;;5.47;;
43628;SDS011;56545;48.224;11.678;2023-02-28T04:38:49;9.50;;;5.53;;
43628;SDS011;56545;48.224;11.678;2023-02-28T04:41:15;12.27;;;5.55;;
43628;SDS011;56545;48.224;11.678;2023-02-28T04:43:41;11.13;;;5.45;;
43628;SDS011;56545;48.224;11.678;2023-02-28T04:46:07;9.63;;;5.25;;
43628;SDS011;56545;48.224;11.678;2023-02-28T04:48:34;11.40;;;5.47;;
43628;SDS011;56545;48.224;11.678;2023-02-28T04:51:03;10.68;;;5.40;;
43628;SDS011;56545;48.224;11.678;2023-02-28T04:53:30;11.10;;;5.70;;
43628;SDS011;56545;48.224;11.678;2023-02-28T04:55:56;10.02;;;5.80;;
43628;SDS011;56545;48.224;11.678;2023-02-28T04:58:23;12.52;;;6.25;;
43628;SDS011;56545;48.224;11.678;2023-02-28T05:00:52;9.88;;;5.45;;
43628;SDS011;56545;48.224;11.678;2023-02-28T05:03:19;11.05;;;6.18;;
43628;SDS011;56545;48.224;11.678;2023-02-28T05:05:47;9.40;;;5.50;;
43628;SDS011;56545;48.224;11.678;2023-02-28T05:08:13;9.30;;;5.60;;
43628;SDS011;56545;48.224;11.678;2023-02-28T05:10:39;11.35;;;5.97;;
43628;SDS011;56545;48.224;11.678;2023-02-28T05:13:05;10.60;;;6.10;;
43628;SDS011;56545;48.224;11.678;2023-02-28T05:15:30;10.50;;;5.75;;
43628;SDS011;56545;48.224;11.678;2023-02-28T05:17:56;10.60;;;5.97;;
43628;SDS011;56545;48.224;11.678;2023-02-28T05:20:22;12.70;;;6.10;;
43628;SDS011;56545;48.224;11.678;2023-02-28T05:22:49;12.32;;;6.40;;
43628;SDS011;56545;48.224;11.678;2023-02-28T05:25:16;10.30;;;6.45;;
43628;SDS011;56545;48.224;11.678;2023-02-28T05:27:45;10.90;;;6.47;;
43628;SDS011;56545;48.224;11.678;2023-02-28T05:30:11;10.70;;;6.07;;
43628;SDS011;56545;48.224;11.678;2023-02-28T05:32:37;10.27;;;6.18;;
43628;SDS011;56545;48.224;11.678;2023-02-28T05:35:07;12.75;;;6.72;;
43628;SDS011;56545;48.224;11.678;2023-02-28T05:37:34;10.95;;;6.65;;
43628;SDS011;56545;48.224;11.678;2023-02-28T05:40:00;11.35;;;6.35;;
43628;SDS011;56545;48.224;11.678;2023-02-28T05:42:26;12.65;;;6.78;;
43628;SDS011;56545;48.224;11.678;2023-02-28T05:44:52;10.57;;;6.65;;
43628;SDS011;56545;48.224;11.678;2023-02-28T05:47:18;11.70;;;6.55;;
43628;SDS011;56545;48.224;11.678;2023-02-28T05:49:44;12.45;;;6.30;;
43628;SDS011;56545;48.224;11.678;2023-02-28T05:52:10;10.32;;;6.05;;
43628;SDS011;56545;48.224;11.678;2023-02-28T05:54:35;11.82;;;6.78;;
43628;SDS011;56545;48.224;11.678;2023-02-28T05:57:01;10.77;;;6.45;;
43628;SDS011;56545;48.224;11.678;2023-02-28T05:59:27;13.50;;;7.20;;
43628;SDS011;56545;48.224;11.678;2023-02-28T06:01:53;11.05;;;6.45;;
43628;SDS011;56545;48.224;11.678;2023-02-28T06:04:20;12.02;;;7.10;;
43628;SDS011;56545;48.224;11.678;2023-02-28T06:06:46;13.45;;;7.07;;
43628;SDS011;56545;48.224;11.678;2023-02-28T06:09:13;11.30;;;7.07;;
43628;SDS011;56545;48.224;11.678;2023-02-28T06:11:40;11.75;;;7.38;;
43628;SDS011;56545;48.224;11.678;2023-02-28T06:14:07;11.48;;;6.93;;
43628;SDS011;56545;48.224;11.678;2023-02-28T06:16:37;12.07;;;7.30;;
43628;SDS011;56545;48.224;11.678;2023-02-28T06:19:03;12.43;;;7.20;;
43628;SDS011;56545;48.224;11.678;2023-02-28T06:21:29;12.20;;;6.80;;
43628;SDS011;56545;48.224;11.678;2023-02-28T06:23:56;10.23;;;6.93;;
43628;SDS011;56545;48.224;11.678;2023-02-28T06:26:23;11.48;;;7.18;;
43628;SDS011;56545;48.224;11.678;2023-02-28T06:28:50;12.70;;;7.38;;
43628;SDS011;56545;48.224;11.678;2023-02-28T06:31:16;12.50;;;6.75;;
43628;SDS011;56545;48.224;11.678;2023-02-28T06:33:43;12.55;;;7.57;;
43628;SDS011;56545;48.224;11.678;2023-02-28T06:36:10;11.45;;;6.97;;
43628;SDS011;56545;48.224;11.678;2023-02-28T06:38:38;12.50;;;7.35;;
43628;SDS011;56545;48.224;11.678;2023-02-28T06:41:04;13.80;;;7.93;;
43628;SDS011;56545;48.224;11.678;2023-02-28T06:43:32;15.02;;;7.32;;
43628;SDS011;56545;48.224;11.678;2023-02-28T06:46:01;12.45;;;7.28;;
43628;SDS011;56545;48.224;11.678;2023-02-28T06:48:28;12.18;;;7.80;;
43628;SDS011;56545;48.224;11.678;2023-02-28T06:51:01;12.00;;;7.10;;
43628;SDS011;56545;48.224;11.678;2023-02-28T06:53:34;14.93;;;8.18;;
43628;SDS011;56545;48.224;11.678;2023-02-28T06:56:07;13.30;;;7.50;;
43628;SDS011;56545;48.224;11.678;2023-02-28T06:58:35;13.00;;;8.27;;
43628;SDS011;56545;48.224;11.678;2023-02-28T07:01:02;15.45;;;8.32;;
43628;SDS011;56545;48.224;11.678;2023-02-28T07:03:29;13.07;;;7.93;;
43628;SDS011;56545;48.224;11.678;2023-02-28T07:05:55;12.68;;;8.05;;
43628;SDS011;56545;48.224;11.678;2023-02-28T07:08:24;15.60;;;8.90;;
43628;SDS011;56545;48.224;11.678;2023-02-28T07:10:52;12.48;;;7.65;;
43628;SDS011;56545;48.224;11.678;2023-02-28T07:13:21;12.55;;;8.27;;
43628;SDS011;56545;48.224;11.678;2023-02-28T07:16:01;14.00;;;8.43;;
43628;SDS011;56545;48.224;11.678;2023-02-28T07:18:29;14.20;;;8.50;;
43628;SDS011;56545;48.224;11.678;2023-02-28T07:20:55;14.80;;;9.05;;
43628;SDS011;56545;48.224;11.678;2023-02-28T07:23:21;14.45;;;9.27;;
43628;SDS011;56545;48.224;11.678;2023-02-28T07:25:49;14.60;;;9.35;;
43628;SDS011;56545;48.224;11.678;2023-02-28T07:28:15;18.30;;;11.30;;
43628;SDS011;56545;48.224;11.678;2023-02-28T07:30:41;16.50;;;10.15;;
43628;SDS011;56545;48.224;11.678;2023-02-28T07:33:07;15.90;;;9.75;;
43628;SDS011;56545;48.224;11.678;2023-02-28T07:35:34;15.95;;;9.48;;
43628;SDS011;56545;48.224;11.678;2023-02-28T07:38:00;14.32;;;9.48;;
43628;SDS011;56545;48.224;11.678;2023-02-28T07:40:27;14.70;;;9.68;;
43628;SDS011;56545;48.224;11.678;2023-02-28T07:42:54;17.08;;;10.57;;
43628;SDS011;56545;48.224;11.678;2023-02-28T07:45:20;14.00;;;9.73;;
43628;SDS011;56545;48.224;11.678;2023-02-28T07:47:46;17.25;;;10.30;;
43628;SDS011;56545;48.224;11.678;2023-02-28T07:50:13;15.55;;;9.63;;
43628;SDS011;56545;48.224;11.678;2023-02-28T07:52:40;15.88;;;9.75;;
43628;SDS011;56545;48.224;11.678;2023-02-28T07:55:07;15.73;;;9.45;;
43628;SDS011;56545;48.224;11.678;2023-02-28T07:57:34;16.25;;;10.07;;
43628;SDS011;56545;48.224;11.678;2023-02-28T08:00:00;15.43;;;9.77;;
43628;SDS011;56545;48.224;11.678;2023-02-28T08:02:28;14.75;;;10.45;;
43628;SDS011;56545;48.224;11.678;2023-02-28T08:04:54;16.17;;;10.73;;
43628;SDS011;56545;48.224;11.678;2023-02-28T08:07:20;17.20;;;10.10;;
43628;SDS011;56545;48.224;11.678;2023-02-28T08:09:46;15.55;;;10.10;;
43628;SDS011;56545;48.224;11.678;2023-02-28T08:12:11;16.15;;;9.98;;
43628;SDS011;56545;48.224;11.678;2023-02-28T08:14:37;14.73;;;10.05;;
43628;SDS011;56545;48.224;11.678;2023-02-28T08:17:04;14.50;;;9.82;;
43628;SDS011;56545;48.224;11.678;2023-02-28T08:19:31;17.52;;;10.00;;
43628;SDS011;56545;48.224;11.678;2023-02-28T08:21:57;15.02;;;9.15;;
43628;SDS011;56545;48.224;11.678;2023-02-28T08:24:23;14.38;;;9.30;;
43628;SDS011;56545;48.224;11.678;2023-02-28T08:26:49;14.32;;;9.10;;
43628;SDS011;56545;48.224;11.678;2023-02-28T08:29:15;16.55;;;10.23;;
43628;SDS011;56545;48.224;11.678;2023-02-28T08:31:41;16.90;;;10.43;;
43628;SDS011;56545;48.224;11.678;2023-02-28T08:34:11;16.98;;;9.98;;
43628;SDS011;56545;48.224;11.678;2023-02-28T08:36:39;16.48;;;10.02;;
43628;SDS011;56545;48.224;11.678;2023-02-28T08:39:05;15.18;;;10.25;;
43628;SDS011;56545;48.224;11.678;2023-02-28T08:41:32;15.45;;;10.50;;
43628;SDS011;56545;48.224;11.678;2023-02-28T08:43:58;16.92;;;10.00;;
43628;SDS011;56545;48.224;11.678;2023-02-28T08:46:25;14.48;;;9.73;;
43628;SDS011;56545;48.224;11.678;2023-02-28T08:48:51;15.27;;;10.32;;
43628;SDS011;56545;48.224;11.678;2023-02-28T08:51:18;14.40;;;10.00;;
43628;SDS011;56545;48.224;11.678;2023-02-28T08:53:51;15.35;;;9.68;;
43628;SDS011;56545;48.224;11.678;2023-02-28T08:56:20;15.40;;;9.68;;
43628;SDS011;56545;48.224;11.678;2023-02-28T08:58:47;14.20;;;9.02;;
43628;SDS011;56545;48.224;11.678;2023-02-28T09:01:15;15.73;;;9.93;;
43628;SDS011;56545;48.224;11.678;2023-02-28T09:03:46;14.00;;;9.38;;
43628;SDS011;56545;48.224;11.678;2023-02-28T09:06:14;15.40;;;9.73;;
43628;SDS011;56545;48.224;11.678;2023-02-28T09:08:41;15.43;;;9.93;;
43628;SDS011;56545;48.224;11.678;2023-02-28T09:11:07;15.68;;;9.98;;
43628;SDS011;56545;48.224;11.678;2023-02-28T09:13:34;15.77;;;9.90;;
43628;SDS011;56545;48.224;11.678;2023-02-28T09:16:00;13.38;;;9.07;;
43628;SDS011;56545;48.224;11.678;2023-02-28T09:18:28;16.15;;;10.05;;
43628;SDS011;56545;48.224;11.678;2023-02-28T09:20:54;15.15;;;9.88;;
43628;SDS011;56545;48.224;11.678;2023-02-28T09:23:21;22.05;;;14.45;;
43628;SDS011;56545;48.224;11.678;2023-02-28T09:25:47;15.35;;;10.50;;
43628;SDS011;56545;48.224;11.678;2023-02-28T09:28:18;17.58;;;9.02;;
43628;SDS011;56545;48.224;11.678;2023-02-28T09:30:45;13.65;;;9.43;;
43628;SDS011;56545;48.224;11.678;2023-02-28T09:33:15;14.35;;;9.45;;
43628;SDS011;56545;48.224;11.678;2023-02-28T09:35:42;14.05;;;9.60;;
43628;SDS011;56545;48.224;11.678;2023-02-28T09:38:09;14.68;;;9.55;;
43628;SDS011;56545;48.224;11.678;2023-02-28T09:40:39;16.05;;;9.88;;
43628;SDS011;56545;48.224;11.678;2023-02-28T09:43:16;15.80;;;8.98;;
43628;SDS011;56545;48.224;11.678;2023-02-28T09:45:51;15.13;;;10.02;;
43628;SDS011;56545;48.224;11.678;2023-02-28T09:48:34;15.18;;;9.35;;
43628;SDS011;56545;48.224;11.678;2023-02-28T09:51:05;13.45;;;9.38;;
43628;SDS011;56545;48.224;11.678;2023-02-28T09:53:47;16.60;;;10.50;;
43628;SDS011;56545;48.224;11.678;2023-02-28T09:57:00;16.77;;;10.40;;
43628;SDS011;56545;48.224;11.678;2023-02-28T09:59:04;15.00;;;9.85;;
43628;SDS011;56545;48.224;11.678;2023-02-28T10:04:17;14.70;;;9.40;;
43628;SDS011;56545;48.224;11.678;2023-02-28T10:12:53;14.02;;;9.35;;
43628;SDS011;56545;48.224;11.678;2023-02-28T10:15:23;13.52;;;8.60;;
43628;SDS011;56545;48.224;11.678;2023-02-28T10:17:54;14.93;;;9.82;;
43628;SDS011;56545;48.224;11.678;2023-02-28T10:20:23;13.07;;;9.35;;
43628;SDS011;56545;48.224;11.678;2023-02-28T10:23:02;14.32;;;10.02;;
43628;SDS011;56545;48.224;11.678;2023-02-28T10:25:32;13.85;;;9.88;;
43628;SDS011;56545;48.224;11.678;2023-02-28T10:28:10;13.98;;;9.75;;
43628;SDS011;56545;48.224;11.678;2023-02-28T10:30:38;14.45;;;9.25;;
43628;SDS011;56545;48.224;11.678;2023-02-28T10:33:08;14.75;;;9.73;;
43628;SDS011;56545;48.224;11.678;2023-02-28T10:36:08;14.02;;;9.02;;
43628;SDS011;56545;48.224;11.678;2023-02-28T10:38:38;15.43;;;9.50;;
43628;SDS011;56545;48.224;11.678;2023-02-28T10:43:39;12.48;;;8.85;;
43628;SDS011;56545;48.224;11.678;2023-02-28T10:48:39;11.85;;;8.48;;
43628;SDS011;56545;48.224;11.678;2023-02-28T10:51:41;13.18;;;8.80;;
43628;SDS011;56545;48.224;11.678;2023-02-28T10:54:16;13.93;;;8.50;;
43628;SDS011;56545;48.224;11.678;2023-02-28T10:59:47;11.23;;;8.25;;
43628;SDS011;56545;48.224;11.678;2023-02-28T11:02:34;11.30;;;8.18;;
43628;SDS011;56545;48.224;11.678;2023-02-28T11:05:20;12.48;;;8.43;;
43628;SDS011;56545;48.224;11.678;2023-02-28T11:08:14;10.20;;;7.80;;
43628;SDS011;56545;48.224;11.678;2023-02-28T11:10:44;10.38;;;8.00;;
43628;SDS011;56545;48.224;11.678;2023-02-28T11:13:17;10.00;;;7.68;;
43628;SDS011;56545;48.224;11.678;2023-02-28T11:15:52;15.25;;;8.57;;
43628;SDS011;56545;48.224;11.678;2023-02-28T11:20:52;10.27;;;7.85;;
43628;SDS011;56545;48.224;11.678;2023-02-28T11:23:21;11.27;;;8.20;;
43628;SDS011;56545;48.224;11.678;2023-02-28T11:25:52;10.65;;;7.68;;
43628;SDS011;56545;48.224;11.678;2023-02-28T11:28:27;9.68;;;7.63;;
43628;SDS011;56545;48.224;11.678;2023-02-28T11:33:41;10.48;;;7.30;;
43628;SDS011;56545;48.224;11.678;2023-02-28T11:36:29;9.55;;;7.00;;
43628;SDS011;56545;48.224;11.678;2023-02-28T11:38:58;9.48;;;7.15;;
43628;SDS011;56545;48.224;11.678;2023-02-28T11:44:24;8.23;;;6.60;;
43628;SDS011;56545;48.224;11.678;2023-02-28T11:50:16;8.93;;;7.05;;
43628;SDS011;56545;48.224;11.678;2023-02-28T11:55:38;8.55;;;6.65;;
43628;SDS011;56545;48.224;11.678;2023-02-28T12:10:03;9.85;;;7.30;;
43628;SDS011;56545;48.224;11.678;2023-02-28T12:18:14;9.52;;;6.90;;
43628;SDS011;56545;48.224;11.678;2023-02-28T12:21:22;11.95;;;9.93;;
43628;SDS011;56545;48.224;11.678;2023-02-28T12:24:04;9.23;;;6.75;;
43628;SDS011;56545;48.224;11.678;2023-02-28T12:26:54;9.38;;;7.18;;
43628;SDS011;56545;48.224;11.678;2023-02-28T12:29:29;9.82;;;7.28;;
43628;SDS011;56545;48.224;11.678;2023-02-28T12:32:01;10.35;;;7.22;;
43628;SDS011;56545;48.224;11.678;2023-02-28T12:34:41;10.32;;;7.40;;
43628;SDS011;56545;48.224;11.678;2023-02-28T12:37:13;9.13;;;7.05;;
43628;SDS011;56545;48.224;11.678;2023-02-28T12:39:47;10.23;;;7.45;;
43628;SDS011;56545;48.224;11.678;2023-02-28T12:42:24;10.48;;;7.38;;
43628;SDS011;56545;48.224;11.678;2023-02-28T12:44:58;8.80;;;6.75;;
43628;SDS011;56545;48.224;11.678;2023-02-28T12:47:26;10.90;;;6.82;;
43628;SDS011;56545;48.224;11.678;2023-02-28T12:52:25;9.02;;;6.57;;
43628;SDS011;56545;48.224;11.678;2023-02-28T12:55:19;9.93;;;7.20;;
43628;SDS011;56545;48.224;11.678;2023-02-28T12:58:08;9.40;;;6.75;;
43628;SDS011;56545;48.224;11.678;2023-02-28T13:00:52;9.57;;;6.80;;
43628;SDS011;56545;48.224;11.678;2023-02-28T13:03:43;10.85;;;7.00;;
43628;SDS011;56545;48.224;11.678;2023-02-28T13:09:08;9.15;;;6.70;;
43628;SDS011;56545;48.224;11.678;2023-02-28T13:11:46;8.82;;;6.80;;
43628;SDS011;56545;48.224;11.678;2023-02-28T13:19:25;10.02;;;7.47;;
43628;SDS011;56545;48.224;11.678;2023-02-28T13:21:54;10.75;;;6.93;;
43628;SDS011;56545;48.224;11.678;2023-02-28T13:24:55;8.70;;;7.07;;
43628;SDS011;56545;48.224;11.678;2023-02-28T13:29:41;9.38;;;7.32;;
43628;SDS011;56545;48.224;11.678;2023-02-28T13:34:35;9.40;;;7.07;;
43628;SDS011;56545;48.224;11.678;2023-02-28T13:50:31;11.70;;;8.43;;
43628;SDS011;56545;48.224;11.678;2023-02-28T14:06:49;11.20;;;7.10;;
43628;SDS011;56545;48.224;11.678;2023-02-28T14:11:52;10.02;;;7.70;;
43628;SDS011;56545;48.224;11.678;2023-02-28T14:17:03;11.52;;;7.93;;
43628;SDS011;56545;48.224;11.678;2023-02-28T14:19:31;10.73;;;7.53;;
43628;SDS011;56545;48.224;11.678;2023-02-28T14:30:26;10.95;;;7.50;;
43628;SDS011;56545;48.224;11.678;2023-02-28T14:38:33;10.60;;;7.88;;
43628;SDS011;56545;48.224;11.678;2023-02-28T14:41:17;10.68;;;7.72;;
43628;SDS011;56545;48.224;11.678;2023-02-28T14:43:51;12.43;;;8.20;;
43628;SDS011;56545;48.224;11.678;2023-02-28T14:46:19;11.32;;;8.07;;
43628;SDS011;56545;48.224;11.678;2023-02-28T14:48:49;15.93;;;11.32;;
43628;SDS011;56545;48.224;11.678;2023-02-28T14:51:22;11.23;;;7.93;;
43628;SDS011;56545;48.224;11.678;2023-02-28T14:53:50;11.65;;;7.93;;
43628;SDS011;56545;48.224;11.678;2023-02-28T14:56:22;11.27;;;8.38;;
43628;SDS011;56545;48.224;11.678;2023-02-28T14:58:52;11.27;;;7.82;;
43628;SDS011;56545;48.224;11.678;2023-02-28T15:01:20;10.88;;;8.07;;
43628;SDS011;56545;48.224;11.678;2023-02-28T15:03:48;12.13;;;8.60;;
43628;SDS011;56545;48.224;11.678;2023-02-28T15:06:29;11.30;;;8.13;;
43628;SDS011;56545;48.224;11.678;2023-02-28T15:09:15;11.10;;;7.72;;
43628;SDS011;56545;48.224;11.678;2023-02-28T15:11:45;13.55;;;8.77;;
43628;SDS011;56545;48.224;11.678;2023-02-28T15:14:17;12.32;;;8.57;;
43628;SDS011;56545;48.224;11.678;2023-02-28T15:16:45;11.90;;;8.18;;
43628;SDS011;56545;48.224;11.678;2023-02-28T15:21:50;12.05;;;8.45;;
43628;SDS011;56545;48.224;11.678;2023-02-28T15:24:33;13.52;;;8.68;;
43628;SDS011;56545;48.224;11.678;2023-02-28T15:27:09;12.40;;;8.50;;
43628;SDS011;56545;48.224;11.678;2023-02-28T15:29:43;15.53;;;8.60;;
43628;SDS011;56545;48.224;11.678;2023-02-28T15:32:29;14.50;;;8.90;;
43628;SDS011;56545;48.224;11.678;2023-02-28T15:35:17;13.00;;;8.80;;
43628;SDS011;56545;48.224;11.678;2023-02-28T15:40:42;13.38;;;9.27;;
43628;SDS011;56545;48.224;11.678;2023-02-28T15:43:14;12.98;;;9.00;;
43628;SDS011;56545;48.224;11.678;2023-02-28T15:45:46;12.63;;;9.48;;
43628;SDS011;56545;48.224;11.678;2023-02-28T15:51:06;12.40;;;9.07;;
43628;SDS011;56545;48.224;11.678;2023-02-28T15:53:51;12.13;;;8.45;;
43628;SDS011;56545;48.224;11.678;2023-02-28T15:56:35;14.13;;;9.13;;
43628;SDS011;56545;48.224;11.678;2023-02-28T15:59:07;13.18;;;9.20;;
43628;SDS011;56545;48.224;11.678;2023-02-28T16:04:58;13.05;;;9.38;;
43628;SDS011;56545;48.224;11.678;2023-02-28T16:07:26;13.25;;;9.48;;
43628;SDS011;56545;48.224;11.678;2023-02-28T16:09:52;22.77;;;15.45;;
43628;SDS011;56545;48.224;11.678;2023-02-28T16:12:19;13.20;;;9.70;;
43628;SDS011;56545;48.224;11.678;2023-02-28T16:14:47;12.45;;;8.98;;
43628;SDS011;56545;48.224;11.678;2023-02-28T16:17:24;12.55;;;8.95;;
43628;SDS011;56545;48.224;11.678;2023-02-28T16:19:52;14.13;;;9.00;;
43628;SDS011;56545;48.224;11.678;2023-02-28T16:22:18;14.70;;;9.50;;
43628;SDS011;56545;48.224;11.678;2023-02-28T16:24:44;15.13;;;9.43;;
43628;SDS011;56545;48.224;11.678;2023-02-28T16:27:33;15.48;;;9.57;;
43628;SDS011;56545;48.224;11.678;2023-02-28T16:29:58;13.18;;;9.32;;
43628;SDS011;56545;48.224;11.678;2023-02-28T16:32:24;13.20;;;8.93;;
43628;SDS011;56545;48.224;11.678;2023-02-28T16:34:50;12.95;;;9.23;;
43628;SDS011;56545;48.224;11.678;2023-02-28T16:37:17;12.98;;;9.38;;
43628;SDS011;56545;48.224;11.678;2023-02-28T16:39:44;12.98;;;9.23;;
43628;SDS011;56545;48.224;11.678;2023-02-28T16:42:13;15.70;;;9.38;;
43628;SDS011;56545;48.224;11.678;2023-02-28T16:44:42;14.10;;;10.07;;
43628;SDS011;56545;48.224;11.678;2023-02-28T16:47:08;13.57;;;9.93;;
43628;SDS011;56545;48.224;11.678;2023-02-28T16:49:35;14.88;;;9.75;;
43628;SDS011;56545;48.224;11.678;2023-02-28T16:52:01;15.02;;;9.60;;
43628;SDS011;56545;48.224;11.678;2023-02-28T16:54:27;13.68;;;9.43;;
43628;SDS011;56545;48.224;11.678;2023-02-28T16:56:53;15.30;;;9.55;;
43628;SDS011;56545;48.224;11.678;2023-02-28T16:59:22;17.75;;;9.25;;
43628;SDS011;56545;48.224;11.678;2023-02-28T17:01:49;16.48;;;10.35;;
43628;SDS011;56545;48.224;11.678;2023-02-28T17:04:16;15.57;;;9.68;;
43628;SDS011;56545;48.224;11.678;2023-02-28T17:06:42;15.52;;;10.50;;
43628;SDS011;56545;48.224;11.678;2023-02-28T17:09:19;16.00;;;10.52;;
43628;SDS011;56545;48.224;11.678;2023-02-28T17:11:46;16.63;;;9.95;;
43628;SDS011;56545;48.224;11.678;2023-02-28T17:14:13;16.33;;;9.10;;
43628;SDS011;56545;48.224;11.678;2023-02-28T17:16:40;15.02;;;10.25;;
43628;SDS011;56545;48.224;11.678;2023-02-28T17:19:09;17.02;;;10.27;;
43628;SDS011;56545;48.224;11.678;2023-02-28T17:21:38;18.70;;;13.25;;
43628;SDS011;56545;48.224;11.678;2023-02-28T17:24:06;20.52;;;15.02;;